Time;durP1;ratioP1;P1;durP2;ratioP2;P2;SDS_P1;SDS_P2;PMS_P1;PMS_P2;Temp;Humidity;BMP_temperature;BMP_pressure;BME280_temperature;BME280_humidity;BME280_pressure;Samples;Min_cycle;Max_cycle;Signal;HPM_P1;HPM_P2
2021/10/22 00:01:48;;;;;;;;;;;15.90;56.20;;;;;;4360380;32;19973;-39
2021/10/22 00:04:14;;;;;;;;;;;15.90;56.20;;;;;;4359973;32;19974;-39
2021/10/22 00:06:40;;;;;;;;;;;15.80;56.10;;;;;;4360519;32;19962;-38
2021/10/22 00:09:06;;;;;;;;;;;15.90;56.10;;;;;;4346510;32;19974;-38
2021/10/22 00:11:34;;;;;;;;;;;15.90;56.10;;;;;;4359861;32;19973;-38
2021/10/22 00:14:01;;;;;;;;;;;15.90;56.20;;;;;;4360442;32;19965;-38
2021/10/22 00:16:27;;;;;;;;;;;15.90;56.20;;;;;;4359967;32;19962;-38
2021/10/22 00:18:53;;;;;;;;;;;15.90;56.20;;;;;;4360059;32;20436;-38
2021/10/22 00:21:19;;;;;;;;;;;15.90;56.20;;;;;;4346122;32;19975;-39
2021/10/22 00:23:46;;;;;;;;;;;15.80;56.20;;;;;;4360013;32;19970;-38
2021/10/22 00:26:12;;;;;;;;;;;15.80;56.20;;;;;;4360247;32;19974;-39
2021/10/22 00:28:39;;;;;;;;;;;15.80;56.30;;;;;;4359919;32;20482;-39
2021/10/22 00:31:05;;;;;;;;;;;15.80;56.30;;;;;;4359824;32;19974;-38
2021/10/22 00:33:31;;;;;;;;;;;15.80;56.30;;;;;;4360074;32;19961;-39
2021/10/22 00:35:58;;;;;;;;;;;15.80;56.30;;;;;;4359663;32;19966;-39
2021/10/22 00:38:24;;;;;;;;;;;15.90;56.30;;;;;;4359995;32;19976;-39
2021/10/22 00:40:51;;;;;;;;;;;15.90;56.20;;;;;;4359500;32;20409;-40
2021/10/22 00:43:18;;;;;;;;;;;15.90;56.20;;;;;;4359821;32;20002;-39
2021/10/22 00:45:44;;;;;;;;;;;15.90;56.20;;;;;;4364747;32;19966;-39
2021/10/22 00:48:10;;;;;;;;;;;15.90;56.20;;;;;;4374152;32;20348;-38
2021/10/22 00:50:39;;;;;;;;;;;15.90;56.20;;;;;;4374260;32;20477;-38
2021/10/22 00:53:05;;;;;;;;;;;15.90;56.20;;;;;;4374488;32;20507;-39
2021/10/22 00:55:32;;;;;;;;;;;15.90;56.20;;;;;;4374353;32;19958;-40
2021/10/22 00:57:58;;;;;;;;;;;15.90;56.20;;;;;;4374209;32;20012;-38
2021/10/22 01:00:25;;;;;;;;;;;16.00;56.10;;;;;;4374737;32;20434;-38
2021/10/22 01:02:51;;;;;;;;;;;16.00;55.80;;;;;;4374445;32;20002;-39
2021/10/22 01:05:17;;;;;;;;;;;16.00;55.70;;;;;;4374264;32;19970;-39
2021/10/22 01:07:43;;;;;;;;;;;16.00;55.70;;;;;;4374335;32;19966;-39
2021/10/22 01:10:11;;;;;;;;;;;16.00;55.70;;;;;;4374321;32;20374;-38
2021/10/22 01:12:37;;;;;;;;;;;15.90;55.80;;;;;;4374414;32;20379;-37
2021/10/22 01:15:04;;;;;;;;;;;15.90;55.90;;;;;;4373825;32;20034;-38
2021/10/22 01:17:39;;;;;;;;;;;15.90;55.80;;;;;;4374040;32;19966;-38
2021/10/22 01:20:07;;;;;;;;;;;15.90;56.00;;;;;;4374541;32;19974;-37
2021/10/22 01:22:34;;;;;;;;;;;15.90;56.00;;;;;;4374058;32;19966;-39
2021/10/22 01:25:00;;;;;;;;;;;15.90;56.00;;;;;;4374514;32;19970;-37
2021/10/22 01:27:26;;;;;;;;;;;15.80;55.90;;;;;;4374369;32;20494;-39
2021/10/22 01:29:52;;;;;;;;;;;15.90;55.90;;;;;;4373875;32;20492;-38
2021/10/22 01:32:19;;;;;;;;;;;15.80;55.80;;;;;;4373834;32;19984;-38
2021/10/22 01:34:45;;;;;;;;;;;15.90;55.70;;;;;;4374043;32;19969;-39
2021/10/22 01:37:11;;;;;;;;;;;15.80;55.80;;;;;;4373767;32;19970;-38
2021/10/22 01:39:37;;;;;;;;;;;15.80;55.70;;;;;;4373869;32;20347;-39
2021/10/22 01:42:03;;;;;;;;;;;15.80;55.60;;;;;;4374011;32;19965;-39
2021/10/22 01:44:30;;;;;;;;;;;15.80;55.60;;;;;;4374074;32;19969;-39
2021/10/22 01:46:56;;;;;;;;;;;15.80;55.70;;;;;;4347533;32;20018;-39
2021/10/22 01:49:22;;;;;;;;;;;15.80;55.70;;;;;;4358484;32;20452;-39
2021/10/22 01:51:48;;;;;;;;;;;15.80;55.80;;;;;;4358751;32;19974;-39
2021/10/22 01:54:15;;;;;;;;;;;15.80;55.80;;;;;;4358661;32;19958;-37
2021/10/22 01:56:41;;;;;;;;;;;15.80;55.90;;;;;;4359218;32;19962;-38
2021/10/22 01:59:07;;;;;;;;;;;15.80;56.00;;;;;;4358962;32;20017;-39
2021/10/22 02:01:33;;;;;;;;;;;15.80;56.10;;;;;;4358626;32;19974;-38
2021/10/22 02:04:00;;;;;;;;;;;15.80;56.10;;;;;;4358986;32;19967;-38
2021/10/22 02:06:26;;;;;;;;;;;15.70;56.10;;;;;;4358715;32;19975;-39
2021/10/22 02:08:52;;;;;;;;;;;15.70;56.20;;;;;;4358851;32;20168;-39
2021/10/22 02:11:18;;;;;;;;;;;15.60;56.20;;;;;;4358413;32;19977;-39
2021/10/22 02:13:44;;;;;;;;;;;15.60;56.30;;;;;;4358633;32;20039;-39
2021/10/22 02:16:11;;;;;;;;;;;15.50;56.40;;;;;;4358395;32;20052;-38
2021/10/22 02:18:37;;;;;;;;;;;15.40;56.50;;;;;;4358224;32;20426;-39
2021/10/22 02:21:03;;;;;;;;;;;15.40;56.60;;;;;;4358477;32;20163;-38
2021/10/22 02:23:29;;;;;;;;;;;15.40;56.70;;;;;;4344859;32;19959;-39
2021/10/22 02:25:55;;;;;;;;;;;15.40;56.70;;;;;;4358357;32;20050;-40
2021/10/22 02:28:22;;;;;;;;;;;15.30;56.80;;;;;;4360761;32;19959;-39
2021/10/22 02:30:48;;;;;;;;;;;15.30;56.80;;;;;;4361775;32;20374;-39
2021/10/22 02:33:14;;;;;;;;;;;15.30;56.90;;;;;;4361941;32;20124;-38
2021/10/22 02:35:40;;;;;;;;;;;15.30;56.80;;;;;;4361816;32;19954;-39
2021/10/22 02:38:07;;;;;;;;;;;15.30;56.80;;;;;;4361654;32;20392;-39
2021/10/22 02:40:33;;;;;;;;;;;15.30;56.80;;;;;;4361793;32;20408;-39
2021/10/22 02:42:59;;;;;;;;;;;15.20;56.80;;;;;;4361485;32;19974;-39
2021/10/22 02:45:25;;;;;;;;;;;15.30;57.40;;;;;;4364493;32;19974;-39
2021/10/22 02:47:52;;;;;;;;;;;15.20;56.60;;;;;;4376531;32;20046;-40
2021/10/22 02:50:18;;;;;;;;;;;15.20;56.50;;;;;;4376288;32;19961;-40
2021/10/22 02:52:44;;;;;;;;;;;15.20;56.40;;;;;;4376706;32;19974;-40
2021/10/22 02:55:10;;;;;;;;;;;15.20;56.30;;;;;;4376320;32;20414;-40
2021/10/22 02:57:37;;;;;;;;;;;15.30;56.10;;;;;;4376279;32;20523;-38
2021/10/22 03:00:05;;;;;;;;;;;15.30;56.10;;;;;;4376049;32;19958;-39
2021/10/22 03:02:31;;;;;;;;;;;15.30;56.10;;;;;;4376172;32;19961;-39
2021/10/22 03:04:57;;;;;;;;;;;15.30;56.20;;;;;;4375817;32;20021;-40
2021/10/22 03:07:23;;;;;;;;;;;15.30;56.20;;;;;;4362120;32;20000;-40
2021/10/22 03:09:49;;;;;;;;;;;15.20;56.20;;;;;;4375750;32;20043;-39
2021/10/22 03:12:16;;;;;;;;;;;15.30;56.30;;;;;;4342943;33;19980;-38
2021/10/22 03:14:42;;;;;;;;;;;15.20;56.30;;;;;;4343838;33;19967;-39
2021/10/22 03:17:08;;;;;;;;;;;15.20;56.30;;;;;;4343405;33;20067;-40
2021/10/22 03:19:34;;;;;;;;;;;15.20;56.30;;;;;;4343552;32;19982;-39
2021/10/22 03:22:01;;;;;;;;;;;15.20;56.30;;;;;;4328018;33;20051;-39
2021/10/22 03:24:27;;;;;;;;;;;15.20;56.30;;;;;;4328401;33;20005;-40
2021/10/22 03:26:54;;;;;;;;;;;15.10;56.30;;;;;;4328021;33;19983;-41
2021/10/22 03:29:20;;;;;;;;;;;15.10;56.40;;;;;;4328451;33;19986;-43
2021/10/22 03:31:47;;;;;;;;;;;15.10;56.30;;;;;;4316361;33;19973;-41
2021/10/22 03:34:14;;;;;;;;;;;15.10;56.30;;;;;;4328268;33;19994;-41
2021/10/22 03:36:41;;;;;;;;;;;15.00;56.40;;;;;;4328528;33;19967;-39
2021/10/22 03:39:07;;;;;;;;;;;15.00;56.40;;;;;;4328347;33;19991;-39
2021/10/22 03:41:34;;;;;;;;;;;15.00;56.40;;;;;;4328703;33;19975;-39
2021/10/22 03:44:00;;;;;;;;;;;15.00;56.40;;;;;;4340069;33;20110;-40
2021/10/22 03:46:26;;;;;;;;;;;15.00;56.40;;;;;;4333497;33;19986;-40
2021/10/22 03:48:52;;;;;;;;;;;15.00;56.40;;;;;;4328276;33;20387;-39
2021/10/22 03:51:18;;;;;;;;;;;15.00;56.30;;;;;;4313539;33;19983;-39
2021/10/22 03:53:45;;;;;;;;;;;14.90;56.30;;;;;;4336915;33;20104;-39
2021/10/22 03:56:11;;;;;;;;;;;14.90;56.30;;;;;;4343061;33;20049;-38
2021/10/22 03:58:37;;;;;;;;;;;15.00;56.30;;;;;;4331149;33;19982;-39
2021/10/22 04:01:03;;;;;;;;;;;15.00;56.20;;;;;;4342804;33;19962;-38
2021/10/22 04:03:29;;;;;;;;;;;15.00;56.10;;;;;;4342686;33;19986;-39
2021/10/22 04:05:56;;;;;;;;;;;15.00;56.00;;;;;;4342329;33;20472;-40
2021/10/22 04:08:22;;;;;;;;;;;15.00;56.00;;;;;;4342973;33;19977;-40
2021/10/22 04:10:48;;;;;;;;;;;15.00;55.90;;;;;;4342881;33;19971;-40
2021/10/22 04:13:14;;;;;;;;;;;15.10;55.90;;;;;;4330509;33;19978;-40
2021/10/22 04:15:41;;;;;;;;;;;15.10;55.80;;;;;;4342618;33;19975;-40
2021/10/22 04:18:08;;;;;;;;;;;15.10;55.70;;;;;;4342365;33;20069;-40
2021/10/22 04:20:34;;;;;;;;;;;15.20;55.50;;;;;;4342786;33;19970;-40
2021/10/22 04:23:00;;;;;;;;;;;15.20;55.40;;;;;;4351387;32;20082;-41
2021/10/22 04:25:27;;;;;;;;;;;15.20;55.30;;;;;;4360274;32;20075;-40
2021/10/22 04:27:54;;;;;;;;;;;15.20;55.20;;;;;;4360063;32;20042;-41
2021/10/22 04:30:20;;;;;;;;;;;15.20;55.10;;;;;;4359965;32;19978;-42
2021/10/22 04:32:46;;;;;;;;;;;15.30;55.00;;;;;;4346217;32;19955;-38
2021/10/22 04:35:12;;;;;;;;;;;15.30;54.90;;;;;;4359454;32;20353;-38
2021/10/22 04:40:30;;;;;;;;;;;15.30;54.50;;;;;;4359497;32;19974;-39
2021/10/22 04:43:02;;;;;;;;;;;15.30;54.40;;;;;;4359444;32;19978;-39
2021/10/22 04:45:29;;;;;;;;;;;15.40;54.30;;;;;;4362912;32;19958;-38
2021/10/22 04:47:56;;;;;;;;;;;15.40;54.10;;;;;;4374395;32;20131;-39
2021/10/22 04:50:22;;;;;;;;;;;15.40;54.00;;;;;;4373875;32;20055;-39
2021/10/22 04:52:53;;;;;;;;;;;15.40;54.20;;;;;;4374488;32;20427;-39
2021/10/22 04:55:21;;;;;;;;;;;15.40;54.10;;;;;;4374248;32;19961;-38
2021/10/22 04:57:48;;;;;;;;;;;15.40;54.20;;;;;;4374300;32;19969;-39
2021/10/22 05:00:14;;;;;;;;;;;15.40;54.10;;;;;;4374315;32;20410;-38
2021/10/22 05:02:40;;;;;;;;;;;15.40;54.00;;;;;;4374458;32;19965;-39
2021/10/22 05:05:07;;;;;;;;;;;15.40;54.00;;;;;;4373946;32;19972;-38
2021/10/22 05:07:33;;;;;;;;;;;15.40;53.80;;;;;;4374033;32;20465;-39
2021/10/22 05:09:59;;;;;;;;;;;15.40;53.70;;;;;;4374028;32;19954;-39
2021/10/22 05:12:25;;;;;;;;;;;15.40;53.80;;;;;;4373855;32;19966;-39
2021/10/22 05:14:52;;;;;;;;;;;15.40;53.70;;;;;;4374172;32;20066;-40
2021/10/22 05:17:18;;;;;;;;;;;15.40;53.60;;;;;;4360007;32;20007;-39
2021/10/22 05:19:44;;;;;;;;;;;15.50;53.60;;;;;;4374259;32;19980;-38
2021/10/22 05:22:10;;;;;;;;;;;15.50;53.40;;;;;;4374142;32;19974;-39
2021/10/22 05:24:36;;;;;;;;;;;15.50;53.30;;;;;;4374141;32;19970;-39
2021/10/22 05:27:03;;;;;;;;;;;15.50;53.20;;;;;;4374059;32;19959;-40
2021/10/22 05:29:29;;;;;;;;;;;15.50;53.30;;;;;;4373589;32;19967;-40
2021/10/22 05:31:55;;;;;;;;;;;15.50;53.10;;;;;;4373520;32;19962;-39
2021/10/22 05:34:21;;;;;;;;;;;15.60;53.10;;;;;;4373711;32;19974;-39
2021/10/22 05:36:48;;;;;;;;;;;15.60;53.20;;;;;;4374116;32;19970;-39
2021/10/22 05:39:16;;;;;;;;;;;15.60;53.20;;;;;;4359712;32;19964;-38
2021/10/22 05:41:42;;;;;;;;;;;15.60;52.90;;;;;;4373837;32;20435;-39
2021/10/22 05:44:09;;;;;;;;;;;15.70;52.50;;;;;;4373601;32;19961;-40
2021/10/22 05:46:35;;;;;;;;;;;15.70;52.50;;;;;;4363229;32;19990;-40
2021/10/22 05:49:02;;;;;;;;;;;15.70;52.40;;;;;;4358478;32;20021;-39
2021/10/22 05:51:28;;;;;;;;;;;15.70;52.30;;;;;;4345014;32;20111;-39
2021/10/22 05:53:55;;;;;;;;;;;15.70;52.20;;;;;;4358038;32;19977;-39
2021/10/22 05:56:21;;;;;;;;;;;15.80;52.30;;;;;;4358463;32;20050;-39
2021/10/22 05:58:48;;;;;;;;;;;15.80;52.00;;;;;;4358610;32;20050;-39
2021/10/22 06:01:14;;;;;;;;;;;15.80;52.00;;;;;;4358376;32;19990;-40
2021/10/22 06:03:40;;;;;;;;;;;15.80;51.80;;;;;;4344574;32;20054;-38
2021/10/22 06:06:06;;;;;;;;;;;15.80;51.90;;;;;;4358385;32;20155;-40
2021/10/22 06:08:33;;;;;;;;;;;15.90;51.80;;;;;;4358510;32;19962;-40
2021/10/22 06:10:59;;;;;;;;;;;15.90;51.60;;;;;;4358284;32;20045;-39
2021/10/22 06:13:27;;;;;;;;;;;15.80;51.60;;;;;;4358486;32;20073;-38
2021/10/22 06:15:53;;;;;;;;;;;15.90;51.80;;;;;;4358455;32;19974;-40
2021/10/22 06:18:19;;;;;;;;;;;15.90;51.60;;;;;;4358630;32;19963;-39
2021/10/22 06:25:39;;;;;;;;;;;16.00;51.20;;;;;;4358082;32;20383;-40
2021/10/22 06:28:05;;;;;;;;;;;16.10;51.20;;;;;;4358181;32;19986;-40
2021/10/22 06:30:32;;;;;;;;;;;16.10;51.20;;;;;;4357948;32;19959;-39
2021/10/22 06:32:58;;;;;;;;;;;16.10;51.10;;;;;;4311174;33;20414;-40
2021/10/22 06:35:24;;;;;;;;;;;16.20;51.10;;;;;;4311271;33;20064;-39
2021/10/22 06:37:51;;;;;;;;;;;16.20;50.70;;;;;;4311452;33;19972;-39
2021/10/22 06:40:17;;;;;;;;;;;16.30;50.80;;;;;;4311562;33;19979;-40
2021/10/22 06:42:43;;;;;;;;;;;16.30;50.50;;;;;;4312031;33;20384;-40
2021/10/22 06:45:10;;;;;;;;;;;16.30;50.40;;;;;;4312860;33;20044;-39
2021/10/22 06:47:36;;;;;;;;;;;16.40;50.40;;;;;;4325821;33;20360;-39
2021/10/22 06:50:04;;;;;;;;;;;16.40;50.10;;;;;;4326127;33;19990;-40
2021/10/22 06:52:30;;;;;;;;;;;16.40;50.20;;;;;;4325812;33;20443;-39
2021/10/22 06:54:59;;;;;;;;;;;16.40;50.10;;;;;;4313972;33;19967;-40
2021/10/22 06:57:25;;;;;;;;;;;16.50;50.10;;;;;;4325698;33;20019;-41
2021/10/22 06:59:52;;;;;;;;;;;16.50;50.10;;;;;;4326174;33;19985;-40
2021/10/22 07:02:18;;;;;;;;;;;16.50;50.10;;;;;;4325939;33;19975;-40
2021/10/22 07:04:49;;;;;;;;;;;16.50;50.10;;;;;;4323173;33;19970;-40
2021/10/22 07:07:16;;;;;;;;;;;16.60;49.80;;;;;;4340945;33;20068;-40
2021/10/22 07:09:43;;;;;;;;;;;16.70;49.90;;;;;;4340537;33;20400;-39
2021/10/22 07:12:10;;;;;;;;;;;16.80;49.60;;;;;;4340562;33;20068;-40
2021/10/22 07:14:37;;;;;;;;;;;16.80;49.70;;;;;;4342813;33;20032;-40
2021/10/22 07:17:06;;;;;;;;;;;17.00;49.60;;;;;;4343559;33;19974;-40
2021/10/22 07:19:34;;;;;;;;;;;17.10;48.90;;;;;;4331303;33;20406;-41
2021/10/22 07:22:05;;;;;;;;;;;17.10;48.40;;;;;;4343204;33;20035;-41
2021/10/22 07:24:32;;;;;;;;;;;17.20;48.20;;;;;;4343084;33;19962;-41
2021/10/22 07:27:01;;;;;;;;;;;17.10;48.20;;;;;;4343019;33;20075;-41
2021/10/22 07:29:29;;;;;;;;;;;17.20;48.10;;;;;;4343364;33;19978;-40
2021/10/22 07:31:56;;;;;;;;;;;17.20;48.20;;;;;;4343018;33;20144;-41
2021/10/22 07:34:22;;;;;;;;;;;17.20;48.20;;;;;;4342579;33;20003;-41
2021/10/22 07:36:50;;;;;;;;;;;17.30;48.20;;;;;;4343497;33;20019;-40
2021/10/22 07:39:16;;;;;;;;;;;17.30;47.80;;;;;;4342971;33;20466;-40
2021/10/22 07:41:42;;;;;;;;;;;17.40;47.80;;;;;;4352811;32;20048;-41
2021/10/22 07:44:08;;;;;;;;;;;17.50;47.80;;;;;;4374853;32;20106;-40
2021/10/22 07:46:34;;;;;;;;;;;17.50;47.60;;;;;;4364298;32;19962;-40
2021/10/22 07:49:00;;;;;;;;;;;17.60;47.40;;;;;;4360108;32;19967;-41
2021/10/22 07:51:26;;;;;;;;;;;17.60;47.30;;;;;;4359912;32;20095;-41
2021/10/22 07:53:53;;;;;;;;;;;17.60;47.00;;;;;;4359737;32;19954;-40
2021/10/22 07:56:19;;;;;;;;;;;17.70;46.90;;;;;;4359826;32;19963;-41
2021/10/22 07:58:45;;;;;;;;;;;17.80;46.80;;;;;;4359995;32;19974;-40
2021/10/22 08:01:11;;;;;;;;;;;17.80;46.70;;;;;;4359716;32;19958;-41
2021/10/22 08:03:37;;;;;;;;;;;17.90;46.70;;;;;;4359480;32;20006;-42
2021/10/22 08:06:05;;;;;;;;;;;17.90;46.60;;;;;;4360186;32;19963;-42
2021/10/22 08:08:31;;;;;;;;;;;17.90;46.10;;;;;;4359758;32;20030;-42
2021/10/22 08:10:57;;;;;;;;;;;17.90;46.10;;;;;;4359770;32;19989;-41
2021/10/22 08:13:23;;;;;;;;;;;18.00;46.10;;;;;;4345368;32;19970;-40
2021/10/22 08:15:49;;;;;;;;;;;17.90;46.00;;;;;;4359734;32;19962;-42
2021/10/22 08:18:16;;;;;;;;;;;18.00;46.00;;;;;;4327397;33;19982;-42
2021/10/22 08:20:54;;;;;;;;;;;18.00;45.90;;;;;;4327609;33;19960;-43
2021/10/22 08:23:20;;;;;;;;;;;18.00;45.70;;;;;;4327979;33;20054;-42
2021/10/22 08:25:47;;;;;;;;;;;17.80;45.70;;;;;;4327066;33;19966;-41
2021/10/22 08:28:13;;;;;;;;;;;17.80;46.00;;;;;;4327620;33;20148;-41
2021/10/22 08:30:40;;;;;;;;;;;17.70;46.00;;;;;;4327474;33;20012;-42
2021/10/22 08:33:08;;;;;;;;;;;17.60;46.20;;;;;;4327430;33;20462;-41
2021/10/22 08:35:34;;;;;;;;;;;17.60;46.70;;;;;;4327391;33;19967;-42
2021/10/22 08:38:01;;;;;;;;;;;17.60;46.50;;;;;;4327434;33;19981;-42
2021/10/22 08:40:28;;;;;;;;;;;17.60;46.60;;;;;;4327310;33;20068;-41
2021/10/22 08:42:54;;;;;;;;;;;17.50;46.50;;;;;;4327470;33;20484;-40
2021/10/22 08:45:21;;;;;;;;;;;17.50;46.70;;;;;;4330083;33;19978;-43
2021/10/22 08:47:48;;;;;;;;;;;17.50;46.80;;;;;;4342121;33;20003;-41
2021/10/22 08:50:17;;;;;;;;;;;17.50;47.00;;;;;;4370772;32;19970;-44
2021/10/22 08:52:44;;;;;;;;;;;17.50;47.10;;;;;;4374364;32;19974;-42
2021/10/22 08:55:11;;;;;;;;;;;17.50;46.90;;;;;;4373949;32;20047;-42
2021/10/22 08:57:46;;;;;;;;;;;17.50;46.70;;;;;;4373922;32;19965;-40
2021/10/22 09:00:14;;;;;;;;;;;17.40;46.80;;;;;;4374321;32;19966;-42
2021/10/22 09:02:41;;;;;;;;;;;17.40;47.00;;;;;;4374451;32;19985;-42
2021/10/22 09:05:21;;;;;;;;;;;17.40;47.20;;;;;;4374125;32;19955;-41
2021/10/22 09:07:49;;;;;;;;;;;17.30;47.20;;;;;;4373857;32;19982;-41
2021/10/22 09:10:16;;;;;;;;;;;17.30;47.20;;;;;;4374125;32;20042;-42
2021/10/22 09:12:48;;;;;;;;;;;17.30;47.30;;;;;;4374242;32;19959;-43
2021/10/22 09:15:17;;;;;;;;;;;17.20;47.50;;;;;;4374299;32;20048;-42
2021/10/22 09:17:44;;;;;;;;;;;17.20;47.70;;;;;;4373681;32;20367;-42
2021/10/22 09:20:14;;;;;;;;;;;17.30;47.90;;;;;;4373929;32;20389;-42
2021/10/22 09:22:41;;;;;;;;;;;17.30;47.60;;;;;;4373892;32;20467;-42
2021/10/22 09:25:10;;;;;;;;;;;17.30;47.70;;;;;;4359866;32;19986;-41
2021/10/22 09:27:43;;;;;;;;;;;17.30;47.80;;;;;;4373714;32;20460;-42
2021/10/22 09:30:29;;;;;;;;;;;17.30;47.80;;;;;;4373804;32;19986;-42
2021/10/22 09:33:01;;;;;;;;;;;17.30;47.90;;;;;;4373797;32;19980;-42
2021/10/22 09:35:45;;;;;;;;;;;17.30;47.80;;;;;;4373610;32;20009;-39
2021/10/22 09:38:18;;;;;;;;;;;17.30;47.90;;;;;;4359605;32;19966;-42
2021/10/22 09:40:52;;;;;;;;;;;17.20;48.00;;;;;;4373321;32;19974;-42
2021/10/22 09:43:23;;;;;;;;;;;17.20;48.00;;;;;;4373639;32;20365;-42
2021/10/22 09:45:51;;;;;;;;;;;17.20;48.20;;;;;;4367440;32;19969;-42
2021/10/22 09:48:25;;;;;;;;;;;17.20;48.10;;;;;;4358427;32;19978;-43
2021/10/22 09:50:53;;;;;;;;;;;17.20;48.30;;;;;;4358289;32;20048;-41
2021/10/22 09:53:24;;;;;;;;;;;17.20;48.30;;;;;;4344436;32;19989;-42
2021/10/22 09:56:05;;;;;;;;;;;17.20;48.40;;;;;;4358519;32;19970;-41
2021/10/22 09:58:32;;;;;;;;;;;17.30;48.50;;;;;;4358533;32;19981;-42
2021/10/22 10:01:06;;;;;;;;;;;17.30;48.40;;;;;;4358796;32;20068;-41
2021/10/22 10:03:36;;;;;;;;;;;17.40;48.40;;;;;;4358386;32;19990;-41
2021/10/22 10:06:07;;;;;;;;;;;17.40;48.50;;;;;;4358011;32;20378;-42
2021/10/22 10:08:35;;;;;;;;;;;17.50;48.30;;;;;;4358139;32;19978;-43
2021/10/22 10:11:02;;;;;;;;;;;17.60;48.20;;;;;;4358385;32;19958;-42
2021/10/22 10:13:33;;;;;;;;;;;17.70;48.30;;;;;;4358830;32;19977;-43
2021/10/22 10:16:09;;;;;;;;;;;17.80;47.90;;;;;;4358596;32;19958;-42
2021/10/22 10:18:46;;;;;;;;;;;17.80;47.60;;;;;;4358478;32;19969;-41
2021/10/22 10:21:14;;;;;;;;;;;17.90;47.70;;;;;;4344599;32;19978;-41
2021/10/22 10:23:43;;;;;;;;;;;17.90;47.50;;;;;;4341848;33;20056;-43
2021/10/22 10:26:29;;;;;;;;;;;18.00;47.60;;;;;;4330138;33;20039;-41
2021/10/22 10:28:58;;;;;;;;;;;18.10;47.30;;;;;;4342135;33;19982;-42
2021/10/22 10:31:28;;;;;;;;;;;18.20;47.30;;;;;;4343507;32;19965;-42
2021/10/22 10:33:55;;;;;;;;;;;18.30;47.30;;;;;;4343468;32;19966;-42
2021/10/22 10:36:44;;;;;;;;;;;18.30;47.10;;;;;;4341914;33;20553;-41
2021/10/22 10:39:10;;;;;;;;;;;18.40;47.20;;;;;;4343458;32;20457;-41
2021/10/22 10:41:36;;;;;;;;;;;18.40;47.10;;;;;;4343085;32;20508;-42
2021/10/22 10:44:21;;;;;;;;;;;18.50;47.10;;;;;;4343395;32;19963;-40
2021/10/22 10:46:47;;;;;;;;;;;18.50;46.90;;;;;;4354595;32;19962;-42
2021/10/22 10:49:45;;;;;;;;;;;18.50;46.90;;;;;;4360019;32;19962;-41
2021/10/22 10:52:38;;;;;;;;;;;18.50;46.80;;;;;;4361032;32;19966;-42
2021/10/22 10:55:40;;;;;;;;;;;18.40;46.70;;;;;;4355641;32;19969;-41
2021/10/22 10:58:08;;;;;;;;;;;18.40;47.10;;;;;;4360198;32;19958;-41
2021/10/22 11:00:54;;;;;;;;;;;18.40;47.20;;;;;;4361054;32;19958;-41
2021/10/22 11:03:24;;;;;;;;;;;18.40;47.20;;;;;;4360350;32;19966;-42
2021/10/22 11:05:52;;;;;;;;;;;18.50;47.20;;;;;;4360790;32;20439;-41
2021/10/22 11:08:31;;;;;;;;;;;18.50;47.10;;;;;;4360832;32;19985;-41
2021/10/22 11:10:59;;;;;;;;;;;18.60;47.10;;;;;;4360735;32;20479;-42
2021/10/22 11:13:43;;;;;;;;;;;18.60;47.00;;;;;;4360530;32;20001;-41
2021/10/22 11:16:25;;;;;;;;;;;18.70;47.20;;;;;;4360357;32;19974;-41
2021/10/22 11:18:52;;;;;;;;;;;18.80;47.20;;;;;;4360476;32;19970;-42
2021/10/22 11:21:19;;;;;;;;;;;18.90;46.90;;;;;;4359940;32;19989;-42
2021/10/22 11:23:45;;;;;;;;;;;18.90;46.90;;;;;;4371439;32;20415;-42
2021/10/22 11:26:24;;;;;;;;;;;19.00;46.70;;;;;;4375059;32;20047;-42
2021/10/22 11:28:51;;;;;;;;;;;19.00;46.60;;;;;;4375647;32;19973;-40
2021/10/22 11:31:39;;;;;;;;;;;19.00;46.40;;;;;;4374815;32;19977;-41
2021/10/22 11:34:06;;;;;;;;;;;19.10;46.40;;;;;;4375044;32;20000;-40
2021/10/22 11:36:33;;;;;;;;;;;19.10;46.50;;;;;;4375386;32;19971;-42
2021/10/22 11:39:00;;;;;;;;;;;19.20;46.50;;;;;;4375489;32;20057;-43
2021/10/22 11:41:27;;;;;;;;;;;19.20;46.40;;;;;;4374820;32;20524;-41
2021/10/22 11:44:02;;;;;;;;;;;19.30;46.30;;;;;;4375297;32;19973;-41
2021/10/22 11:46:45;;;;;;;;;;;19.30;46.20;;;;;;4365163;32;19981;-40
2021/10/22 11:49:27;;;;;;;;;;;19.40;46.00;;;;;;4360080;32;19966;-42
2021/10/22 11:51:57;;;;;;;;;;;19.40;45.70;;;;;;4359974;32;19966;-41
2021/10/22 11:54:33;;;;;;;;;;;19.40;45.70;;;;;;4360187;32;19998;-41
2021/10/22 11:57:24;;;;;;;;;;;19.40;45.70;;;;;;4347469;32;20025;-42
2021/10/22 11:59:53;;;;;;;;;;;19.40;45.80;;;;;;4359751;32;19977;-41
2021/10/22 12:02:21;;;;;;;;;;;19.50;45.80;;;;;;4360401;32;20048;-40
2021/10/22 12:04:52;;;;;;;;;;;19.40;45.70;;;;;;4360127;32;20029;-41
2021/10/22 12:07:18;;;;;;;;;;;19.40;45.80;;;;;;4360039;32;19966;-41
2021/10/22 12:09:44;;;;;;;;;;;19.30;45.80;;;;;;4360129;32;19962;-41
2021/10/22 12:12:15;;;;;;;;;;;19.30;46.00;;;;;;4359874;32;19981;-42
2021/10/22 12:14:43;;;;;;;;;;;19.30;46.10;;;;;;4359947;32;19990;-42
2021/10/22 12:17:11;;;;;;;;;;;19.30;46.10;;;;;;4359985;32;20047;-41
2021/10/22 12:19:38;;;;;;;;;;;19.30;46.10;;;;;;4345949;32;20460;-40
2021/10/22 12:22:05;;;;;;;;;;;19.30;46.20;;;;;;4359756;32;19963;-41
2021/10/22 12:25:03;;;;;;;;;;;19.30;46.20;;;;;;4346261;32;20110;-41
2021/10/22 12:27:30;;;;;;;;;;;19.30;46.20;;;;;;4298287;33;19999;-41
2021/10/22 12:29:58;;;;;;;;;;;19.30;46.30;;;;;;4298396;33;19971;-42
2021/10/22 12:32:44;;;;;;;;;;;19.30;46.30;;;;;;4298563;33;19980;-41
2021/10/22 12:35:18;;;;;;;;;;;19.20;46.30;;;;;;4298030;33;19978;-41
2021/10/22 12:38:09;;;;;;;;;;;19.20;46.50;;;;;;4298111;33;19972;-42
2021/10/22 12:40:42;;;;;;;;;;;19.00;46.60;;;;;;4298545;33;20123;-42
2021/10/22 12:43:22;;;;;;;;;;;19.00;46.80;;;;;;4298215;33;20016;-41
2021/10/22 12:45:55;;;;;;;;;;;18.90;46.90;;;;;;4303888;33;20039;-41
2021/10/22 12:48:28;;;;;;;;;;;18.80;47.10;;;;;;4312671;33;19971;-41
2021/10/22 12:51:01;;;;;;;;;;;18.80;47.30;;;;;;4312827;33;19982;-41
2021/10/22 12:53:30;;;;;;;;;;;18.80;47.40;;;;;;4312719;33;20010;-41
2021/10/22 12:56:08;;;;;;;;;;;18.70;48.00;;;;;;4312990;33;20005;-42
2021/10/22 12:58:37;;;;;;;;;;;18.60;47.40;;;;;;4300414;33;20120;-42
2021/10/22 13:01:10;;;;;;;;;;;18.50;47.50;;;;;;4312492;33;19978;-40
2021/10/22 13:03:37;;;;;;;;;;;18.50;47.80;;;;;;4337460;32;19966;-41
2021/10/22 13:06:11;;;;;;;;;;;18.40;47.90;;;;;;4360298;32;20391;-41
2021/10/22 13:11:38;;;;;;;;;;;18.40;48.20;;;;;;4361395;32;19978;-41
2021/10/22 13:22:06;;;;;;;;;;;18.20;48.40;;;;;;4361694;32;19973;-41
2021/10/22 13:24:33;;;;;;;;;;;18.20;48.50;;;;;;4373728;32;19958;-41
2021/10/22 13:27:00;;;;;;;;;;;18.20;48.50;;;;;;4373705;32;20001;-41
2021/10/22 13:29:26;;;;;;;;;;;18.20;48.50;;;;;;4373486;32;20332;-42
2021/10/22 13:31:53;;;;;;;;;;;18.20;48.50;;;;;;4373420;32;19970;-41
2021/10/22 13:34:19;;;;;;;;;;;18.10;48.60;;;;;;4373435;32;19966;-41
2021/10/22 13:36:45;;;;;;;;;;;18.10;48.70;;;;;;4373647;32;20087;-42
2021/10/22 13:39:11;;;;;;;;;;;18.00;48.80;;;;;;4373981;32;19966;-39
2021/10/22 13:41:38;;;;;;;;;;;18.00;49.00;;;;;;4373950;32;19965;-42
2021/10/22 13:44:04;;;;;;;;;;;17.90;49.20;;;;;;4373373;32;20054;-42
2021/10/22 13:46:31;;;;;;;;;;;17.90;49.50;;;;;;4349624;32;20040;-41
2021/10/22 13:48:58;;;;;;;;;;;17.80;49.80;;;;;;4358279;32;19998;-42
2021/10/22 13:51:25;;;;;;;;;;;17.70;50.00;;;;;;4358766;32;19970;-42
2021/10/22 13:53:52;;;;;;;;;;;17.60;50.10;;;;;;4314244;33;20047;-41
2021/10/22 13:56:18;;;;;;;;;;;17.60;50.30;;;;;;4326274;33;20165;-41
2021/10/22 13:58:44;;;;;;;;;;;17.50;50.50;;;;;;4326590;33;19971;-40
2021/10/22 14:01:10;;;;;;;;;;;17.50;50.70;;;;;;4326851;33;20045;-42
2021/10/22 14:03:37;;;;;;;;;;;17.40;50.80;;;;;;4326507;33;19971;-41
2021/10/22 14:06:04;;;;;;;;;;;17.40;51.00;;;;;;4326673;33;20331;-42
2021/10/22 14:08:31;;;;;;;;;;;17.40;51.20;;;;;;4326279;33;20008;-41
2021/10/22 14:11:20;;;;;;;;;;;17.30;51.20;;;;;;4326259;33;19971;-45
2021/10/22 14:13:53;;;;;;;;;;;17.30;51.30;;;;;;4325672;33;19986;-41
2021/10/22 14:24:34;;;;;;;;;;;17.30;51.60;;;;;;4328993;33;20399;-42
2021/10/22 14:29:55;;;;;;;;;;;17.30;51.70;;;;;;4321710;33;19979;-43
2021/10/22 14:32:21;;;;;;;;;;;17.30;51.70;;;;;;4358593;32;19963;-42
2021/10/22 14:34:47;;;;;;;;;;;17.30;51.70;;;;;;4360777;32;20025;-40
2021/10/22 14:37:14;;;;;;;;;;;17.30;51.80;;;;;;4361138;32;20460;-44
2021/10/22 14:39:40;;;;;;;;;;;17.30;51.80;;;;;;4360831;32;20378;-42
2021/10/22 14:42:08;;;;;;;;;;;17.30;52.50;;;;;;4360920;32;20056;-43
2021/10/22 14:44:38;;;;;;;;;;;17.40;51.80;;;;;;4361234;32;19994;-42
2021/10/22 14:47:22;;;;;;;;;;;17.40;51.80;;;;;;4374449;32;19962;-42
2021/10/22 14:50:02;;;;;;;;;;;17.40;51.70;;;;;;4375485;32;19993;-42
2021/10/22 14:52:47;;;;;;;;;;;17.40;51.70;;;;;;4375629;32;19962;-42
2021/10/22 14:57:52;;;;;;;;;;;17.40;51.60;;;;;;4376039;32;19966;-42